createdAt,value
2018-09-03T00:00:56.105Z,4.07
2018-09-03T00:03:24.331Z,4.50
2018-09-03T00:05:52.826Z,4.53
2018-09-03T00:08:21.061Z,4.70
2018-09-03T00:10:49.489Z,4.70
2018-09-03T00:13:17.696Z,4.37
2018-09-03T00:15:45.907Z,4.87
2018-09-03T00:18:14.154Z,4.83
2018-09-03T00:20:42.392Z,5.10
2018-09-03T00:23:10.690Z,5.00
2018-09-03T00:25:39.037Z,5.17
2018-09-03T00:28:07.284Z,5.53
2018-09-03T00:30:35.628Z,4.87
2018-09-03T00:33:21.714Z,5.27
2018-09-03T00:36:07.744Z,5.43
2018-09-03T00:38:53.448Z,5.53
2018-09-03T00:41:39.675Z,5.63
2018-09-03T00:44:25.803Z,5.20
2018-09-03T00:47:00.168Z,5.27
2018-09-03T00:49:30.128Z,5.17
2018-09-03T00:51:58.403Z,5.23
2018-09-03T00:54:26.599Z,5.10
2018-09-03T00:56:54.805Z,5.60
2018-09-03T00:59:23.027Z,5.60
2018-09-03T01:01:51.282Z,5.30
2018-09-03T01:04:19.628Z,5.70
2018-09-03T01:06:47.893Z,5.40
2018-09-03T01:09:16.075Z,5.03
2018-09-03T01:11:44.335Z,5.40
2018-09-03T01:14:12.551Z,5.87
2018-09-03T01:16:41.017Z,4.93
2018-09-03T01:19:09.195Z,5.07
2018-09-03T01:21:37.453Z,5.77
2018-09-03T01:24:05.733Z,5.77
2018-09-03T01:26:34.006Z,5.33
2018-09-03T01:29:02.226Z,5.03
2018-09-03T01:31:30.466Z,5.43
2018-09-03T01:33:58.648Z,5.70
2018-09-03T01:36:26.827Z,5.17
2018-09-03T01:38:55.092Z,5.07
2018-09-03T01:41:23.390Z,5.10
2018-09-03T01:43:51.634Z,5.43
2018-09-03T01:46:19.849Z,5.20
2018-09-03T01:48:48.123Z,5.13
2018-09-03T01:51:16.445Z,5.47
2018-09-03T01:53:44.673Z,6.00
2018-09-03T01:56:13.119Z,5.40
2018-09-03T01:58:41.396Z,5.80
2018-09-03T02:01:09.784Z,6.53
2018-09-03T02:03:38.106Z,5.53
2018-09-03T02:06:06.475Z,5.17
2018-09-03T02:08:34.892Z,6.20
2018-09-03T02:11:03.164Z,5.40
2018-09-03T02:13:32.680Z,6.00
2018-09-03T02:16:00.972Z,5.67
2018-09-03T02:18:29.165Z,6.17
2018-09-03T02:20:57.456Z,6.07
2018-09-03T02:23:25.776Z,5.77
2018-09-03T02:25:53.973Z,5.33
2018-09-03T02:28:22.248Z,5.80
2018-09-03T02:30:50.573Z,6.30
2018-09-03T02:33:18.780Z,6.03
2018-09-03T02:35:47.012Z,6.20
2018-09-03T02:38:15.280Z,6.17
2018-09-03T02:40:43.574Z,6.40
2018-09-03T02:43:11.810Z,6.60
2018-09-03T02:45:40.072Z,6.13
2018-09-03T02:48:08.380Z,6.50
2018-09-03T02:50:37.026Z,6.57
2018-09-03T02:53:05.242Z,6.63
2018-09-03T02:55:33.478Z,7.87
2018-09-03T02:58:01.714Z,7.27
2018-09-03T03:00:30.092Z,6.90
2018-09-03T03:02:58.981Z,6.87
2018-09-03T03:05:28.492Z,6.37
2018-09-03T03:07:57.214Z,6.47
2018-09-03T03:10:25.505Z,6.03
2018-09-03T03:12:53.788Z,7.30
2018-09-03T03:15:22.019Z,6.83
2018-09-03T03:17:50.283Z,7.63
2018-09-03T03:20:18.537Z,6.93
2018-09-03T03:22:46.794Z,6.77
2018-09-03T03:25:14.983Z,7.00
2018-09-03T03:27:43.169Z,6.80
2018-09-03T03:30:11.520Z,6.60
2018-09-03T03:32:40.119Z,6.70
2018-09-03T03:35:09.433Z,6.43
2018-09-03T03:37:37.720Z,7.47
2018-09-03T03:40:06.171Z,6.77
2018-09-03T03:42:34.454Z,6.40
2018-09-03T03:45:02.850Z,6.63
2018-09-03T03:47:31.073Z,7.37
2018-09-03T03:49:59.355Z,6.93
2018-09-03T03:52:27.737Z,6.47
2018-09-03T03:54:55.870Z,6.50
2018-09-03T03:57:24.156Z,7.30
2018-09-03T03:59:52.384Z,7.13
2018-09-03T04:02:20.639Z,6.83
2018-09-03T04:04:49.250Z,6.83
2018-09-03T04:07:18.086Z,7.13
2018-09-03T04:09:46.304Z,7.37
2018-09-03T04:12:14.686Z,8.00
2018-09-03T04:14:42.900Z,7.70
2018-09-03T04:17:11.164Z,7.63
2018-09-03T04:19:39.377Z,7.00
2018-09-03T04:22:07.620Z,7.30
2018-09-03T04:24:36.000Z,8.23
2018-09-03T04:27:04.374Z,7.83
2018-09-03T04:29:32.684Z,7.70
2018-09-03T04:32:01.344Z,7.53
2018-09-03T04:34:31.855Z,7.30
2018-09-03T04:36:58.505Z,7.63
2018-09-03T04:39:26.786Z,8.67
2018-09-03T04:41:55.077Z,7.17
2018-09-03T04:44:23.424Z,7.17
2018-09-03T04:46:51.613Z,7.83
2018-09-03T04:49:20.256Z,7.23
2018-09-03T04:51:48.763Z,7.33
2018-09-03T04:54:17.116Z,7.30
2018-09-03T04:59:13.091Z,7.57
2018-09-03T05:01:41.476Z,7.50
2018-09-03T05:04:09.757Z,7.23
2018-09-03T05:06:38.123Z,8.23
2018-09-03T05:09:07.137Z,7.47
2018-09-03T05:11:35.740Z,7.00
2018-09-03T05:14:04.923Z,7.97
2018-09-03T05:16:33.145Z,6.97
2018-09-03T05:19:01.438Z,7.33
2018-09-03T05:21:29.818Z,7.30
2018-09-03T05:23:58.127Z,6.83
2018-09-03T05:26:26.573Z,7.07
2018-09-03T05:28:55.067Z,7.40
2018-09-03T05:31:23.422Z,6.63
2018-09-03T05:33:51.674Z,7.40
2018-09-03T05:36:19.914Z,6.73
2018-09-03T05:38:48.279Z,6.87
2018-09-03T05:41:16.940Z,6.43
2018-09-03T05:43:45.258Z,6.57
2018-09-03T05:46:13.399Z,6.80
2018-09-03T05:48:41.903Z,6.67
2018-09-03T05:51:10.420Z,6.53
2018-09-03T05:53:38.760Z,5.83
2018-09-03T05:56:06.985Z,6.13
2018-09-03T05:58:35.233Z,6.83
2018-09-03T06:01:04.490Z,6.77
2018-09-03T06:03:32.800Z,6.40
2018-09-03T06:06:01.305Z,6.80
2018-09-03T06:08:30.450Z,6.63
2018-09-03T06:10:58.785Z,6.67
2018-09-03T06:13:27.085Z,7.10
2018-09-03T06:15:55.315Z,6.60
2018-09-03T06:18:23.538Z,6.37
2018-09-03T06:20:51.690Z,6.30
2018-09-03T06:23:20.041Z,6.23
2018-09-03T06:25:48.369Z,6.07
2018-09-03T06:28:16.781Z,7.00
2018-09-03T06:30:45.033Z,5.70
2018-09-03T06:33:13.453Z,6.57
2018-09-03T06:35:41.795Z,6.93
2018-09-03T06:38:10.022Z,6.40
2018-09-03T06:40:38.252Z,6.30
2018-09-03T06:43:06.588Z,6.20
2018-09-03T06:45:34.901Z,5.87
2018-09-03T06:48:03.440Z,5.20
2018-09-03T06:50:31.742Z,6.10
2018-09-03T06:53:00.039Z,6.30
2018-09-03T06:55:28.334Z,6.73
2018-09-03T06:57:56.649Z,6.10
2018-09-03T07:00:25.094Z,6.17
2018-09-03T07:02:53.402Z,6.83
2018-09-03T07:05:22.567Z,6.90
2018-09-03T07:07:50.886Z,6.77
2018-09-03T07:10:19.217Z,6.40
2018-09-03T07:12:47.423Z,6.63
2018-09-03T07:15:15.685Z,8.10
2018-09-03T07:17:43.937Z,7.27
2018-09-03T07:20:12.495Z,7.10
2018-09-03T07:22:40.730Z,7.00
2018-09-03T07:25:09.058Z,7.17
2018-09-03T07:27:37.649Z,7.80
2018-09-03T07:30:05.934Z,6.70
2018-09-03T07:32:34.278Z,7.23
2018-09-03T07:35:02.616Z,7.30
2018-09-03T07:37:30.832Z,6.77
2018-09-03T07:39:59.144Z,7.60
2018-09-03T07:42:27.365Z,7.50
2018-09-03T07:44:55.651Z,7.20
2018-09-03T07:47:23.802Z,7.00
2018-09-03T07:49:52.118Z,7.30
2018-09-03T07:52:20.440Z,7.13
2018-09-03T07:54:49.235Z,7.20
2018-09-03T07:57:17.704Z,7.40
2018-09-03T07:59:45.989Z,6.57
2018-09-03T08:02:14.261Z,6.93
2018-09-03T08:04:42.525Z,7.07
2018-09-03T08:07:10.863Z,6.23
2018-09-03T08:09:39.186Z,6.90
2018-09-03T08:12:07.697Z,6.87
2018-09-03T08:14:36.041Z,6.13
2018-09-03T08:17:04.310Z,6.77
2018-09-03T08:19:32.596Z,7.20
2018-09-03T08:22:01.582Z,6.90
2018-09-03T08:24:29.808Z,6.70
2018-09-03T08:26:58.015Z,7.30
2018-09-03T08:29:26.484Z,6.20
2018-09-03T08:31:55.723Z,6.83
2018-09-03T08:34:24.324Z,6.53
2018-09-03T08:36:52.648Z,7.17
2018-09-03T08:39:22.018Z,6.80
2018-09-03T08:41:49.347Z,6.37
2018-09-03T08:44:17.926Z,6.50
2018-09-03T08:46:46.237Z,5.70
2018-09-03T08:49:14.480Z,6.87
2018-09-03T08:51:42.800Z,6.43
2018-09-03T08:54:12.919Z,6.07
2018-09-03T08:56:41.305Z,6.50
2018-09-03T08:59:09.638Z,6.53
2018-09-03T09:01:37.875Z,6.43
2018-09-03T09:04:06.142Z,6.20
2018-09-03T09:06:34.538Z,6.87
2018-09-03T09:09:02.793Z,5.73
2018-09-03T09:11:31.083Z,6.30
2018-09-03T09:13:59.371Z,6.43
2018-09-03T09:16:27.795Z,6.67
2018-09-03T09:18:56.049Z,6.90
2018-09-03T09:21:24.322Z,7.90
2018-09-03T09:23:52.623Z,6.97
2018-09-03T09:26:20.900Z,7.10
2018-09-03T09:28:49.131Z,6.70
2018-09-03T09:31:17.478Z,6.30
2018-09-03T09:33:45.731Z,7.70
2018-09-03T09:36:14.153Z,6.73
2018-09-03T09:38:42.400Z,7.23
2018-09-03T09:41:10.667Z,6.60
2018-09-03T09:43:38.984Z,7.20
2018-09-03T09:46:07.323Z,7.93
2018-09-03T09:48:35.555Z,7.70
2018-09-03T09:51:04.124Z,8.03
2018-09-03T09:53:32.370Z,8.30
2018-09-03T09:56:00.634Z,7.50
2018-09-03T09:58:29.759Z,8.40
2018-09-03T10:01:15.822Z,8.20
2018-09-03T10:03:44.216Z,7.73
2018-09-03T10:06:12.478Z,7.30
2018-09-03T10:08:40.887Z,8.57
2018-09-03T10:11:09.121Z,8.60
2018-09-03T10:13:37.450Z,8.90
2018-09-03T10:16:05.739Z,8.93
2018-09-03T10:18:34.410Z,8.57
2018-09-03T10:21:02.814Z,9.13
2018-09-03T10:23:31.140Z,8.70
2018-09-03T10:25:59.563Z,8.40
2018-09-03T10:28:27.784Z,7.57
2018-09-03T10:30:56.158Z,8.27
2018-09-03T10:33:24.464Z,8.57
2018-09-03T10:35:52.811Z,7.97
2018-09-03T10:38:21.037Z,8.93
2018-09-03T10:40:49.313Z,9.27
2018-09-03T10:43:17.535Z,7.80
2018-09-03T10:45:46.754Z,8.37
2018-09-03T10:48:16.296Z,8.23
2018-09-03T10:50:44.658Z,8.37
2018-09-03T10:53:13.163Z,9.00
2018-09-03T10:55:41.897Z,8.43
2018-09-03T10:58:11.006Z,8.87
2018-09-03T11:00:39.223Z,8.63
2018-09-03T11:03:08.317Z,7.90
2018-09-03T11:05:39.236Z,8.80
2018-09-03T11:08:07.517Z,9.20
2018-09-03T11:10:35.752Z,8.70
2018-09-03T11:13:04.029Z,8.27
2018-09-03T11:15:32.351Z,8.93
2018-09-03T11:18:00.589Z,8.70
2018-09-03T11:20:30.247Z,8.77
2018-09-03T11:22:59.123Z,9.00
2018-09-03T11:25:29.461Z,9.27
2018-09-03T11:27:57.734Z,9.10
2018-09-03T11:30:26.613Z,9.40
2018-09-03T11:33:12.911Z,9.23
2018-09-03T11:35:41.144Z,8.93
2018-09-03T11:38:09.387Z,8.97
2018-09-03T11:40:37.635Z,9.30
2018-09-03T11:43:06.396Z,8.43
2018-09-03T11:45:34.706Z,9.80
2018-09-03T11:48:03.202Z,10.00
2018-09-03T11:50:31.920Z,9.63
2018-09-03T11:53:00.230Z,9.63
2018-09-03T11:55:29.248Z,9.40
2018-09-03T11:57:57.912Z,9.40
2018-09-03T12:00:27.735Z,8.87
2018-09-03T12:02:56.082Z,9.57
2018-09-03T12:05:24.359Z,9.83
2018-09-03T12:07:52.874Z,10.07
2018-09-03T12:10:21.228Z,9.77
2018-09-03T12:12:49.534Z,9.57
2018-09-03T12:15:42.669Z,9.37
2018-09-03T12:18:10.998Z,9.43
2018-09-03T12:20:41.308Z,9.00
2018-09-03T12:23:09.545Z,9.33
2018-09-03T12:25:37.898Z,9.40
2018-09-03T12:28:06.301Z,9.83
2018-09-03T12:30:34.591Z,9.37
2018-09-03T12:33:02.898Z,10.90
2018-09-03T12:35:31.281Z,9.70
2018-09-03T12:37:59.606Z,9.23
2018-09-03T12:40:29.161Z,10.07
2018-09-03T12:42:56.235Z,10.40
2018-09-03T12:45:43.526Z,9.97
2018-09-03T12:48:11.961Z,10.13
2018-09-03T12:50:40.337Z,10.17
2018-09-03T12:53:08.772Z,10.57
2018-09-03T12:55:37.211Z,10.50
2018-09-03T12:58:06.121Z,11.20
2018-09-03T13:00:38.676Z,10.03
2018-09-03T13:03:02.925Z,10.03
2018-09-03T13:05:31.671Z,10.50
2018-09-03T13:07:59.910Z,11.17
2018-09-03T13:10:28.268Z,10.60
2018-09-03T13:12:56.784Z,11.00
2018-09-03T13:15:33.011Z,10.67
2018-09-03T13:18:01.405Z,10.27
2018-09-03T13:20:29.644Z,10.33
2018-09-03T13:22:58.049Z,10.87
2018-09-03T13:25:26.397Z,11.33
2018-09-03T13:27:54.747Z,11.10
2018-09-03T13:30:23.361Z,10.83
2018-09-03T13:32:51.668Z,12.17
2018-09-03T13:35:19.910Z,11.23
2018-09-03T13:37:48.219Z,11.17
2018-09-03T13:40:16.685Z,11.47
2018-09-03T13:42:44.972Z,11.63
2018-09-03T13:45:13.413Z,12.23
2018-09-03T13:47:41.915Z,12.30
2018-09-03T13:50:10.368Z,12.47
2018-09-03T13:52:38.811Z,11.67
2018-09-03T13:55:07.684Z,11.43
2018-09-03T13:57:36.056Z,11.93
2018-09-03T14:00:23.748Z,11.90
2018-09-03T14:02:52.048Z,11.70
2018-09-03T14:05:20.441Z,12.07
2018-09-03T14:07:48.847Z,11.90
2018-09-03T14:10:17.345Z,11.90
2018-09-03T14:12:45.968Z,12.37
2018-09-03T14:15:14.368Z,11.93
2018-09-03T14:17:42.925Z,10.73
2018-09-03T14:20:11.512Z,11.40
2018-09-03T14:22:39.815Z,11.73
2018-09-03T14:25:08.300Z,11.63
2018-09-03T14:27:36.759Z,12.00
2018-09-03T14:30:05.233Z,12.07
2018-09-03T14:32:33.651Z,11.87
2018-09-03T14:35:02.116Z,11.27
2018-09-03T14:37:30.903Z,11.17
2018-09-03T14:39:59.311Z,12.10
2018-09-03T14:42:27.684Z,11.27
2018-09-03T14:44:56.237Z,11.60
2018-09-03T14:47:24.840Z,11.60
2018-09-03T14:49:53.227Z,11.60
2018-09-03T14:52:21.483Z,12.43
2018-09-03T14:54:49.901Z,11.20
2018-09-03T14:57:18.277Z,11.30
2018-09-03T14:59:46.865Z,11.87
2018-09-03T15:02:15.342Z,11.13
2018-09-03T15:04:43.648Z,12.40
2018-09-03T15:07:12.436Z,12.87
2018-09-03T15:09:40.724Z,11.77
2018-09-03T15:12:09.225Z,12.00
2018-09-03T15:14:37.700Z,12.57
2018-09-03T15:17:06.517Z,11.77
2018-09-03T15:19:34.971Z,11.23
2018-09-03T15:22:03.581Z,12.93
2018-09-03T15:24:32.091Z,13.10
2018-09-03T15:27:00.350Z,11.77
2018-09-03T15:29:28.926Z,12.27
2018-09-03T15:31:57.904Z,12.50
2018-09-03T15:34:26.324Z,12.73
2018-09-03T15:36:54.594Z,12.40
2018-09-03T15:39:23.092Z,12.70
2018-09-03T15:41:51.555Z,12.80
2018-09-03T15:44:20.196Z,12.63
2018-09-03T15:46:48.920Z,12.10
2018-09-03T15:49:17.443Z,10.93
2018-09-03T15:51:46.091Z,11.67
2018-09-03T15:54:14.951Z,12.00
2018-09-03T15:56:43.274Z,11.23
2018-09-03T15:59:11.956Z,11.10
2018-09-03T16:01:40.807Z,12.50
2018-09-03T16:04:09.306Z,12.27
2018-09-03T16:06:37.854Z,11.93
2018-09-03T16:09:08.881Z,10.70
2018-09-03T16:11:38.396Z,11.93
2018-09-03T16:14:07.575Z,10.80
2018-09-03T16:16:36.192Z,11.17
2018-09-03T16:19:04.690Z,10.87
2018-09-03T16:21:33.783Z,11.27
2018-09-03T16:24:02.073Z,10.80
2018-09-03T16:26:30.600Z,10.90
2018-09-03T16:28:59.240Z,11.47
2018-09-03T16:31:27.829Z,12.10
2018-09-03T16:33:58.991Z,10.10
2018-09-03T16:36:27.223Z,9.97
2018-09-03T16:38:55.556Z,9.80
2018-09-03T16:41:23.764Z,9.30
2018-09-03T16:43:52.365Z,10.10
2018-09-03T16:46:21.072Z,8.27
2018-09-03T16:48:49.404Z,9.53
2018-09-03T16:51:17.659Z,8.67
2018-09-03T16:53:46.202Z,8.93
2018-09-03T16:56:14.562Z,8.77
2018-09-03T16:58:42.940Z,8.27
2018-09-03T17:01:11.265Z,8.70
2018-09-03T17:03:39.670Z,8.27
2018-09-03T17:06:16.836Z,8.13
2018-09-03T17:08:45.111Z,8.60
2018-09-03T17:11:13.346Z,8.40
2018-09-03T17:13:41.591Z,8.10
2018-09-03T17:16:10.248Z,8.37
2018-09-03T17:18:38.620Z,8.10
2018-09-03T17:21:07.197Z,8.27
2018-09-03T17:23:35.605Z,8.10
2018-09-03T17:26:03.974Z,7.30
2018-09-03T17:28:32.402Z,7.67
2018-09-03T17:31:00.768Z,7.40
2018-09-03T17:33:29.079Z,7.60
2018-09-03T17:36:00.028Z,7.63
2018-09-03T17:38:28.245Z,7.53
2018-09-03T17:40:56.579Z,8.17
2018-09-03T17:43:25.130Z,7.43
2018-09-03T17:45:53.560Z,8.50
2018-09-03T17:48:22.505Z,7.60
2018-09-03T17:50:50.882Z,7.17
2018-09-03T17:53:19.309Z,7.23
2018-09-03T17:55:48.053Z,7.87
2018-09-03T17:58:16.573Z,6.97
2018-09-03T18:00:44.917Z,7.23
2018-09-03T18:03:13.578Z,7.67
2018-09-03T18:05:42.638Z,7.47
2018-09-03T18:08:11.423Z,7.77
2018-09-03T18:10:39.672Z,6.93
2018-09-03T18:13:09.494Z,8.43
2018-09-03T18:15:36.738Z,7.20
2018-09-03T18:18:05.082Z,7.33
2018-09-03T18:20:33.579Z,7.27
2018-09-03T18:23:02.424Z,7.70
2018-09-03T18:25:31.410Z,7.03
2018-09-03T18:28:00.284Z,7.67
2018-09-03T18:30:29.392Z,7.57
2018-09-03T18:32:58.108Z,7.03
2018-09-03T18:35:27.001Z,7.77
2018-09-03T18:37:55.592Z,7.23
2018-09-03T18:40:24.164Z,6.40
2018-09-03T18:42:52.888Z,7.17
2018-09-03T18:45:21.778Z,6.93
2018-09-03T18:47:50.656Z,7.43
2018-09-03T18:50:19.351Z,6.80
2018-09-03T18:52:47.871Z,6.77
2018-09-03T18:55:16.641Z,7.40
2018-09-03T18:57:45.004Z,7.87
2018-09-03T19:00:14.508Z,7.33
2018-09-03T19:02:43.318Z,7.13
2018-09-03T19:05:12.021Z,7.27
2018-09-03T19:07:41.312Z,6.93
2018-09-03T19:10:10.524Z,7.47
2018-09-03T19:12:39.684Z,6.77
2018-09-03T19:15:08.418Z,7.10
2018-09-03T19:17:36.857Z,7.07
2018-09-03T19:20:05.451Z,7.37
2018-09-03T19:22:34.042Z,6.80
2018-09-03T19:25:02.767Z,6.93
2018-09-03T19:27:31.193Z,6.90
2018-09-03T19:29:59.699Z,6.93
2018-09-03T19:32:27.996Z,6.30
2018-09-03T19:34:56.643Z,6.90
2018-09-03T19:37:24.992Z,7.37
2018-09-03T19:39:55.634Z,6.97
2018-09-03T19:42:23.956Z,6.37
2018-09-03T19:44:52.585Z,7.17
2018-09-03T19:47:21.105Z,6.40
2018-09-03T19:49:49.743Z,6.20
2018-09-03T19:55:25.506Z,6.43
2018-09-03T19:57:54.258Z,6.93
2018-09-03T20:00:23.435Z,6.33
2018-09-03T20:02:51.983Z,5.97
2018-09-03T20:05:20.566Z,6.57
2018-09-03T20:07:49.303Z,7.00
2018-09-03T20:10:18.156Z,6.33
2018-09-03T20:12:46.823Z,6.70
2018-09-03T20:15:25.114Z,6.37
2018-09-03T20:17:54.789Z,5.83
2018-09-03T20:20:23.884Z,6.30
2018-09-03T20:22:52.361Z,6.27
2018-09-03T20:25:21.756Z,5.93
2018-09-03T20:27:53.665Z,6.93
2018-09-03T20:30:22.551Z,6.73
2018-09-03T20:32:51.315Z,5.63
2018-09-03T20:35:20.230Z,6.20
2018-09-03T20:37:48.826Z,6.67
2018-09-03T20:40:17.387Z,6.20
2018-09-03T20:42:46.046Z,6.00
2018-09-03T20:45:14.541Z,6.10
2018-09-03T20:47:42.970Z,5.63
2018-09-03T20:50:11.910Z,5.77
2018-09-03T20:52:40.787Z,5.90
2018-09-03T20:55:09.372Z,6.13
2018-09-03T20:57:38.107Z,6.40
2018-09-03T21:00:07.345Z,6.07
2018-09-03T21:02:36.025Z,5.53
2018-09-03T21:05:05.013Z,5.67
2018-09-03T21:07:33.851Z,6.10
2018-09-03T21:10:02.632Z,6.90
2018-09-03T21:12:31.597Z,5.80
2018-09-03T21:15:00.159Z,5.47
2018-09-03T21:17:28.616Z,5.90
2018-09-03T21:19:57.176Z,5.37
2018-09-03T21:22:25.568Z,5.27
2018-09-03T21:24:54.214Z,5.40
2018-09-03T21:27:22.660Z,5.13
2018-09-03T21:29:50.933Z,4.80
2018-09-03T21:32:19.333Z,5.00
2018-09-03T21:34:47.578Z,4.90
2018-09-03T21:37:16.472Z,4.90
2018-09-03T21:39:44.904Z,4.77
2018-09-03T21:42:13.125Z,5.30
2018-09-03T21:44:41.473Z,4.80
2018-09-03T21:47:09.776Z,4.57
2018-09-03T21:49:38.132Z,4.30
2018-09-03T21:52:06.502Z,4.33
2018-09-03T21:54:34.940Z,4.13
2018-09-03T21:57:03.261Z,4.07
2018-09-03T21:59:31.496Z,4.87
2018-09-03T22:01:59.839Z,4.40
2018-09-03T22:04:28.365Z,4.53
2018-09-03T22:06:56.733Z,4.60
2018-09-03T22:09:25.097Z,4.17
2018-09-03T22:11:53.694Z,4.33
2018-09-03T22:14:22.081Z,4.43
2018-09-03T22:16:50.282Z,4.10
2018-09-03T22:19:18.743Z,4.17
2018-09-03T22:21:47.230Z,4.30
2018-09-03T22:24:15.501Z,4.10
2018-09-03T22:26:44.216Z,4.47
2018-09-03T22:29:12.886Z,4.47
2018-09-03T22:31:41.463Z,4.10
2018-09-03T22:34:09.899Z,4.90
2018-09-03T22:36:38.277Z,4.23
2018-09-03T22:39:07.476Z,4.37
2018-09-03T22:41:35.806Z,4.10
2018-09-03T22:44:04.121Z,4.10
2018-09-03T22:46:32.500Z,4.80
2018-09-03T22:49:00.979Z,5.07
2018-09-03T22:51:29.210Z,4.27
2018-09-03T22:53:57.591Z,4.20
2018-09-03T22:56:26.072Z,4.07
2018-09-03T22:58:54.396Z,4.07
2018-09-03T23:01:22.670Z,3.77
2018-09-03T23:03:50.962Z,3.80
2018-09-03T23:06:19.294Z,4.30
2018-09-03T23:08:47.601Z,3.90
2018-09-03T23:11:15.906Z,4.73
2018-09-03T23:13:44.108Z,4.20
2018-09-03T23:16:12.347Z,3.90
2018-09-03T23:18:40.663Z,4.40
2018-09-03T23:21:08.938Z,4.63
2018-09-03T23:23:37.159Z,4.07
2018-09-03T23:26:05.409Z,4.30
2018-09-03T23:28:33.747Z,4.17
2018-09-03T23:31:02.011Z,4.23
2018-09-03T23:33:30.383Z,4.23
2018-09-03T23:35:58.682Z,4.13
2018-09-03T23:38:26.982Z,4.03
2018-09-03T23:40:55.420Z,4.37
2018-09-03T23:43:23.667Z,4.40
2018-09-03T23:45:51.959Z,4.50
2018-09-03T23:48:20.266Z,4.30
2018-09-03T23:50:48.453Z,4.53
2018-09-03T23:53:16.812Z,4.37
2018-09-03T23:55:45.076Z,4.30
2018-09-03T23:58:13.348Z,4.47
